Ana Sayfa
METAR-TAF:

METAR-TAF

Havaalanları :

Wilbarger County Airport

Vernon, Teksas, Amerika Birleşik Devletleri

Enlem: 34-13-32N, Boylam: 099-17-01W, yükseklik: 386 m

Güncel hava durumu gözlemi

Rapor saat 06:55 UTC de 17 dakika önce yapıldı.
Rüzgar doğudan 11 kt
Sıcaklık 11°C
Nem 87%
Basınç 1009 hPa
Görüş mesafesi: 11.3 km
1200 ft yükseklikte çok bulutlu

METAR: KF05 280655Z AUTO 10011KT 7SM OVC012 11/09 A2979 RMK AO1 T01060094

Saat: 01:12 (07:12 UTC)


TAF: eksik

4.000'den fazla havaalanı için hava durumu gözlemleri ve tahminleri (METAR ve TAF raporları).

Kullanılabilir istasyonlar harita üzerinde sarı ve kırmızı noktalarla gösterilir.

İstasyonun adını görmek için fareyi noktanın üzerinde gezdirin.

Sonrasında hava gözlem ve tahminlerini görmek için tıklayın.

Haritayı değiştirmek için: yaklaştırmak için siyah artı işaretli yeşil düğmeye ve uzaklaştırmak için de eksi işaretli düğmeye hızla tıklayın; bitişik haritalar için yeşil okları kullanın.


METAR-TAF: